Time;durP1;ratioP1;P1;durP2;ratioP2;P2;SDS_P1;SDS_P2;PMS_P1;PMS_P2;Temp;Humidity;BMP_temperature;BMP_pressure;BME280_temperature;BME280_humidity;BME280_pressure;Samples;Min_cycle;Max_cycle;Signal;HPM_P1;HPM_P2
2021/04/16 00:01:36;;;;;;;;;31.50;29.00;;;;;10.67;49.92;98912.34;6325754;27;96063;-64
2021/04/16 00:07:08;;;;;;;;;29.80;28.20;;;;;10.65;49.65;98898.28;6246148;27;96208;-64
2021/04/16 00:12:40;;;;;;;;;28.60;25.40;;;;;10.56;49.69;98904.97;6243350;27;97224;-65
2021/04/16 00:16:45;;;;;;;;;26.60;24.00;;;;;10.56;49.83;98892.31;6361057;27;96988;-65
2021/04/16 00:19:47;;;;;;;;;29.60;25.00;;;;;10.54;49.79;98890.91;6315471;27;97565;-65
2021/04/16 00:22:50;;;;;;;;;28.40;26.00;;;;;10.54;49.95;98880.13;6331117;27;96432;-64
2021/04/16 00:25:53;;;;;;;;;27.60;26.00;;;;;10.43;50.06;98877.09;6334352;27;96657;-64
2021/04/16 00:29:08;;;;;;;;;31.00;29.00;;;;;10.35;50.46;98885.47;6337679;27;96022;-66
2021/04/16 00:32:58;;;;;;;;;27.80;24.20;;;;;10.49;50.10;98879.97;6337583;27;96628;-64
2021/04/16 00:36:00;;;;;;;;;28.20;27.00;;;;;10.59;49.89;98883.81;6296843;27;97244;-65
2021/04/16 00:39:03;;;;;;;;;31.00;27.00;;;;;10.55;49.97;98887.16;6306397;27;98077;-65
2021/04/16 00:42:06;;;;;;;;;29.40;27.40;;;;;10.52;49.91;98880.34;6295846;27;97600;-65
2021/04/16 00:45:22;;;;;;;;;25.60;24.60;;;;;10.30;50.51;98877.22;6350610;27;96734;-65
2021/04/16 00:49:16;;;;;;;;;31.00;29.00;;;;;10.50;50.02;98890.53;6325982;27;96487;-65
2021/04/16 00:53:06;;;;;;;;;31.00;27.40;;;;;10.26;50.20;98877.88;6275613;27;96463;-65
2021/04/16 00:56:53;;;;;;;;;26.75;24.00;;;;;10.39;49.92;98886.69;6226776;27;123722;-65
2021/04/16 01:00:10;;;;;;;;;26.75;23.00;;;;;10.44;49.86;98886.00;6363008;27;96360;-65
2021/04/16 01:05:42;;;;;;;;;28.00;25.00;;;;;10.36;50.22;98886.31;6337341;27;96070;-65
2021/04/16 01:09:32;;;;;;;;;24.25;23.25;;;;;10.35;50.11;98877.38;6260029;27;96439;-65
2021/04/16 01:12:36;;;;;;;;;23.60;22.60;;;;;10.32;50.16;98880.50;6218486;28;100734;-65
2021/04/16 01:15:40;;;;;;;;;24.80;22.40;;;;;10.23;50.19;98887.22;6229836;28;99537;-65
2021/04/16 01:18:47;;;;;;;;;25.20;23.20;;;;;10.33;50.09;98876.78;6230645;27;97212;-64
2021/04/16 01:21:55;;;;;;;;;20.25;18.00;;;;;10.26;50.10;98875.19;6226348;27;96878;-65
2021/04/16 01:24:59;;;;;;;;;20.80;20.80;;;;;10.09;50.10;98861.41;6223421;28;98851;-65
2021/04/16 01:28:01;;;;;;;;;25.00;22.40;;;;;10.17;50.21;98880.00;6228619;28;96667;-65
2021/04/16 01:31:08;;;;;;;;;24.00;22.00;;;;;10.20;50.20;98893.06;6231511;27;97219;-65
2021/04/16 01:34:10;;;;;;;;;24.75;23.00;;;;;10.24;50.14;98882.66;6228476;27;97632;-65
2021/04/16 01:37:28;;;;;;;;;22.40;22.00;;;;;10.30;49.84;98877.22;6362594;27;96121;-65
2021/04/16 01:41:34;;;;;;;;;25.00;23.00;;;;;10.34;49.75;98880.28;6234788;28;96304;-66
2021/04/16 01:44:50;;;;;;;;;24.00;23.00;;;;;10.36;49.86;98881.72;6363287;27;96842;-65
2021/04/16 01:48:43;;;;;;;;;21.60;21.40;;;;;10.32;49.75;98871.59;6258533;27;96081;-65
2021/04/16 01:54:18;;;;;;;;;21.00;20.00;;;;;10.31;49.94;98873.47;6250899;27;97340;-65
2021/04/16 01:57:23;;;;;;;;;22.00;21.00;;;;;10.14;49.96;98860.72;6218285;28;99413;-64
2021/04/16 02:00:30;;;;;;;;;26.40;24.40;;;;;10.13;49.93;98862.59;6215993;27;97949;-64
2021/04/16 02:03:33;;;;;;;;;22.40;20.00;;;;;10.13;49.86;98870.69;6211654;28;97048;-65
2021/04/16 02:06:37;;;;;;;;;26.40;24.40;;;;;10.13;50.07;98864.47;6229960;27;99357;-65
2021/04/16 02:09:41;;;;;;;;;25.00;23.60;;;;;10.07;50.07;98860.78;6210738;28;97236;-65
2021/04/16 02:12:43;;;;;;;;;22.20;21.20;;;;;10.03;49.90;98854.19;6214582;28;98642;-65
2021/04/16 02:15:45;;;;;;;;;27.20;25.00;;;;;10.00;50.01;98847.38;6212353;28;96979;-65
2021/04/16 02:18:47;;;;;;;;;22.60;22.00;;;;;10.02;49.87;98846.34;6208038;28;100865;-65
2021/04/16 02:21:50;;;;;;;;;23.00;21.00;;;;;9.98;49.77;98857.53;6221790;28;98411;-65
2021/04/16 02:24:53;;;;;;;;;22.40;22.00;;;;;9.84;49.86;98828.22;6208767;28;98359;-65
2021/04/16 02:27:55;;;;;;;;;24.00;21.00;;;;;9.90;50.07;98848.91;6221427;28;99203;-65
2021/04/16 02:30:58;;;;;;;;;21.60;20.00;;;;;9.69;50.46;98858.16;6227660;28;96566;-65
2021/04/16 02:34:00;;;;;;;;;21.20;20.80;;;;;9.75;50.31;98851.91;6207617;28;100174;-65
2021/04/16 02:37:07;;;;;;;;;25.20;22.60;;;;;9.80;50.21;98843.19;6217892;28;99425;-65
2021/04/16 02:40:13;;;;;;;;;27.00;24.00;;;;;9.74;50.30;98844.88;6231238;28;98400;-65
2021/04/16 02:43:15;;;;;;;;;22.40;20.00;;;;;9.73;50.24;98850.47;6230652;27;101220;-65
2021/04/16 02:46:18;;;;;;;;;25.00;24.00;;;;;9.52;50.63;98843.56;6216192;28;101485;-65
2021/04/16 02:49:21;;;;;;;;;27.00;23.00;;;;;9.37;50.71;98843.84;6218147;28;98627;-65
2021/04/16 02:52:23;;;;;;;;;25.60;21.60;;;;;9.41;51.00;98850.44;6225138;28;100102;-65
2021/04/16 02:55:26;;;;;;;;;30.00;24.00;;;;;9.39;50.85;98852.53;6227079;28;96525;-65
2021/04/16 02:58:29;;;;;;;;;24.60;21.00;;;;;9.29;51.14;98849.47;6230213;27;97019;-65
2021/04/16 03:01:32;;;;;;;;;23.60;21.60;;;;;8.99;51.26;98803.47;6229156;28;99842;-65
2021/04/16 03:04:36;;;;;;;;;26.00;25.00;;;;;9.31;51.02;98850.09;6217952;28;99641;-65
2021/04/16 03:07:38;;;;;;;;;25.80;24.40;;;;;9.36;50.94;98857.50;6212989;28;98624;-65
2021/04/16 03:10:41;;;;;;;;;25.00;23.00;;;;;9.25;50.96;98844.72;6213127;28;97997;-65
2021/04/16 03:13:43;;;;;;;;;28.00;23.40;;;;;9.29;51.01;98845.94;6207866;28;98450;-65
2021/04/16 03:16:45;;;;;;;;;28.50;25.50;;;;;9.23;51.26;98847.66;6190134;28;96930;-65
2021/04/16 03:19:48;;;;;;;;;30.00;25.00;;;;;9.08;51.53;98841.72;6210681;28;96462;-65
2021/04/16 03:22:50;;;;;;;;;26.75;24.25;;;;;9.20;51.31;98853.44;6205083;28;98232;-65
2021/04/16 03:25:53;;;;;;;;;27.50;24.50;;;;;9.20;51.37;98847.22;6208857;28;98047;-65
2021/04/16 03:28:59;;;;;;;;;31.20;28.00;;;;;9.24;51.15;98846.59;6214204;28;96523;-65
2021/04/16 03:32:01;;;;;;;;;26.00;24.00;;;;;9.22;51.21;98854.06;6199560;28;97040;-65
2021/04/16 03:35:05;;;;;;;;;28.00;25.25;;;;;9.29;51.17;98849.47;6201197;28;96696;-65
2021/04/16 03:38:08;;;;;;;;;26.00;22.40;;;;;9.18;51.33;98849.31;6202270;28;96505;-65
2021/04/16 03:41:11;;;;;;;;;25.50;23.50;;;;;9.25;51.37;98845.56;6210649;28;100518;-65
2021/04/16 03:44:13;;;;;;;;;27.00;25.00;;;;;9.23;51.42;98853.03;6202118;28;97456;-65
2021/04/16 03:47:16;;;;;;;;;27.60;24.60;;;;;9.36;51.08;98852.97;6198754;28;98673;-65
2021/04/16 03:50:22;;;;;;;;;23.75;21.00;;;;;9.25;51.17;98852.78;6211546;28;99618;-65
2021/04/16 03:53:24;;;;;;;;;22.25;21.75;;;;;9.35;51.18;98854.00;6208407;28;99530;-66
2021/04/16 03:56:27;;;;;;;;;23.00;22.00;;;;;9.39;51.01;98849.00;6208561;28;99123;-66
2021/04/16 03:59:30;;;;;;;;;19.20;18.80;;;;;9.39;50.96;98855.22;6205379;28;98425;-65
2021/04/16 04:02:32;;;;;;;;;26.00;23.00;;;;;9.41;50.79;98858.53;6200179;28;99593;-65
2021/04/16 04:05:35;;;;;;;;;23.60;20.00;;;;;9.28;51.21;98847.84;6192986;28;98524;-65
2021/04/16 04:08:37;;;;;;;;;23.00;22.60;;;;;9.34;51.06;98849.66;6208191;28;96508;-65
2021/04/16 04:11:41;;;;;;;;;26.00;23.00;;;;;9.38;50.79;98848.16;6196669;28;98568;-65
2021/04/16 04:14:43;;;;;;;;;23.40;22.00;;;;;9.44;50.93;98849.19;6196757;28;96745;-65
2021/04/16 04:17:46;;;;;;;;;23.00;20.67;;;;;9.20;50.97;98829.22;6191990;28;99670;-65
2021/04/16 04:20:48;;;;;;;;;23.00;22.00;;;;;9.28;50.76;98857.78;6186230;28;98464;-65
2021/04/16 04:23:50;;;;;;;;;26.60;25.00;;;;;9.24;50.67;98853.81;6191637;28;98704;-65
2021/04/16 04:26:53;;;;;;;;;25.75;23.50;;;;;9.24;50.73;98859.22;6203302;28;98038;-65
2021/04/16 04:29:55;;;;;;;;;22.50;20.50;;;;;9.30;50.56;98864.56;6200962;28;97495;-65
2021/04/16 04:32:58;;;;;;;;;21.25;20.00;;;;;9.24;50.86;98862.72;6204731;28;100112;-64
2021/04/16 04:36:01;;;;;;;;;18.20;17.80;;;;;9.07;50.96;98859.72;6205797;28;98691;-65
2021/04/16 04:39:04;;;;;;;;;25.80;22.00;;;;;8.98;51.01;98865.53;6199110;28;96589;-65
2021/04/16 04:42:08;;;;;;;;;26.20;23.20;;;;;9.17;50.96;98859.25;6202287;28;100899;-65
2021/04/16 04:45:12;;;;;;;;;23.60;21.00;;;;;9.07;51.04;98858.88;6199726;28;99276;-65
2021/04/16 04:48:14;;;;;;;;;21.60;20.60;;;;;9.04;51.29;98859.31;6195596;28;97151;-64
2021/04/16 04:51:17;;;;;;;;;21.20;19.20;;;;;8.98;51.39;98858.31;6199204;28;97590;-65
2021/04/16 04:54:19;;;;;;;;;23.80;20.20;;;;;9.07;51.42;98845.44;6192389;28;99513;-65
2021/04/16 04:57:24;;;;;;;;;20.00;20.00;;;;;9.08;51.18;98861.38;6190646;28;99563;-65
2021/04/16 05:00:28;;;;;;;;;22.25;19.25;;;;;9.08;51.43;98849.78;6196282;28;99079;-64
2021/04/16 05:03:30;;;;;;;;;22.00;20.00;;;;;9.15;51.19;98853.25;6198934;28;97072;-64
2021/04/16 05:06:33;;;;;;;;;23.00;20.00;;;;;9.14;51.28;98849.72;6190676;28;96587;-64
2021/04/16 05:09:35;;;;;;;;;22.25;21.00;;;;;8.99;51.62;98851.84;6194981;28;98136;-65
2021/04/16 05:12:39;;;;;;;;;24.00;21.00;;;;;8.96;51.53;98841.53;6202524;28;98144;-65
2021/04/16 05:15:41;;;;;;;;;22.80;19.20;;;;;8.96;51.57;98860.34;6205891;28;99193;-65
2021/04/16 05:18:43;;;;;;;;;23.20;21.80;;;;;8.96;51.67;98868.44;6206958;28;98464;-65
2021/04/16 05:21:45;;;;;;;;;22.60;22.20;;;;;8.84;52.06;98861.25;6196818;28;98841;-65
2021/04/16 05:24:48;;;;;;;;;23.00;20.60;;;;;8.83;52.16;98864.97;6204579;28;99940;-65
2021/04/16 05:27:50;;;;;;;;;22.50;20.50;;;;;8.82;52.14;98868.69;6203683;28;100197;-65
2021/04/16 05:30:53;;;;;;;;;21.00;20.00;;;;;8.92;52.09;98871.75;6191005;28;100280;-64
2021/04/16 05:33:56;;;;;;;;;25.00;23.00;;;;;8.80;52.32;98860.81;6207249;28;99982;-64
2021/04/16 05:36:58;;;;;;;;;21.00;18.00;;;;;8.79;52.32;98879.88;6195416;28;96419;-64
2021/04/16 05:40:00;;;;;;;;;21.00;20.00;;;;;8.78;52.21;98870.97;6189848;28;126875;-64
2021/04/16 05:43:03;;;;;;;;;23.25;21.25;;;;;8.89;52.13;98875.69;6187660;28;98484;-65
2021/04/16 05:46:06;;;;;;;;;20.80;18.80;;;;;8.84;52.24;98872.00;6201997;28;101064;-65
2021/04/16 05:49:08;;;;;;;;;25.75;21.75;;;;;8.78;52.27;98870.97;6187704;28;99414;-65
2021/04/16 05:52:10;;;;;;;;;23.40;21.00;;;;;8.79;52.30;98863.72;6197851;28;98032;-65
2021/04/16 05:55:13;;;;;;;;;23.00;21.40;;;;;8.70;52.35;98850.50;6190641;28;100337;-65
2021/04/16 05:58:21;;;;;;;;;21.00;19.00;;;;;8.69;52.66;98851.56;6206877;28;100803;-65
2021/04/16 06:01:23;;;;;;;;;22.00;20.25;;;;;8.70;52.77;98853.19;6209542;28;99104;-65
2021/04/16 06:04:28;;;;;;;;;25.00;23.00;;;;;8.75;52.55;98849.88;6207131;28;101284;-65
2021/04/16 06:07:50;;;;;;;;;24.00;23.00;;;;;8.79;52.74;98863.72;6193444;28;100934;-65
2021/04/16 06:10:53;;;;;;;;;21.25;19.00;;;;;8.79;52.63;98858.34;6195044;28;97753;-65
2021/04/16 06:13:56;;;;;;;;;24.00;24.00;;;;;8.81;52.69;98857.09;6198613;28;97725;-65
2021/04/16 06:16:58;;;;;;;;;24.00;20.00;;;;;8.87;52.64;98863.50;6189709;28;98404;-65
2021/04/16 06:20:00;;;;;;;;;23.60;21.20;;;;;9.05;52.41;98852.88;6192499;28;96573;-67
2021/04/16 06:23:03;;;;;;;;;21.60;20.60;;;;;8.92;52.40;98858.31;6189659;28;96740;-65
2021/04/16 06:26:05;;;;;;;;;23.00;21.00;;;;;8.89;52.61;98856.06;6201212;28;98420;-65
2021/04/16 06:29:08;;;;;;;;;21.25;20.00;;;;;8.85;52.67;98850.25;6186200;28;98487;-64
2021/04/16 06:32:14;;;;;;;;;23.00;22.40;;;;;8.93;52.56;98855.41;6191407;28;101590;-66
2021/04/16 06:35:17;;;;;;;;;23.20;20.00;;;;;8.96;52.54;98854.16;6205104;28;126337;-65
2021/04/16 06:38:22;;;;;;;;;21.75;20.00;;;;;9.02;52.04;98851.44;6191387;28;124131;-65
2021/04/16 06:41:40;;;;;;;;;22.80;20.00;;;;;9.04;52.19;98848.56;6197686;28;126026;-66
2021/04/16 06:44:46;;;;;;;;;22.60;21.00;;;;;9.05;52.43;98853.69;6191688;28;124852;-65
2021/04/16 06:47:54;;;;;;;;;19.50;18.50;;;;;9.07;52.29;98848.13;6191805;28;128156;-64
2021/04/16 06:50:59;;;;;;;;;24.00;21.75;;;;;9.21;52.02;98857.78;6189101;28;124924;-65
2021/04/16 06:54:05;;;;;;;;;24.00;22.00;;;;;9.26;51.95;98854.44;6188372;28;126738;-65
2021/04/16 06:57:21;;;;;;;;;26.00;22.80;;;;;9.18;51.82;98850.16;6209953;28;124593;-65
2021/04/16 07:00:34;;;;;;;;;23.00;21.00;;;;;9.09;52.06;98843.34;6192379;28;126167;-65
2021/04/16 07:03:43;;;;;;;;;24.60;22.60;;;;;9.08;52.09;98847.91;6189511;28;124627;-64
2021/04/16 07:06:45;;;;;;;;;24.60;22.00;;;;;9.14;52.28;98855.13;6193475;28;126013;-65
2021/04/16 07:09:51;;;;;;;;;22.50;22.00;;;;;9.12;52.24;98856.38;6189380;28;125028;-65
2021/04/16 07:12:53;;;;;;;;;23.50;21.00;;;;;9.10;52.36;98847.69;6192783;28;125941;-65
2021/04/16 07:15:56;;;;;;;;;22.00;22.00;;;;;9.19;52.35;98865.22;6194006;28;125177;-65
2021/04/16 07:19:05;;;;;;;;;21.00;19.00;;;;;9.19;52.34;98859.84;6202459;28;125311;-65
2021/04/16 07:22:17;;;;;;;;;24.40;20.80;;;;;9.35;52.20;98867.44;6203522;28;126867;-65
2021/04/16 07:25:28;;;;;;;;;21.40;20.00;;;;;9.53;51.70;98847.88;6189649;28;124740;-65
2021/04/16 07:28:47;;;;;;;;;23.40;21.80;;;;;9.46;51.51;98855.19;6207766;28;124873;-65
2021/04/16 07:31:52;;;;;;;;;19.50;18.00;;;;;9.53;51.31;98851.41;6211294;28;124171;-65
2021/04/16 07:34:56;;;;;;;;;21.00;19.00;;;;;9.50;51.40;98859.91;6211941;28;124789;-64
2021/04/16 07:38:03;;;;;;;;;19.00;17.60;;;;;9.38;51.70;98855.44;6206393;28;124717;-64
2021/04/16 07:41:23;;;;;;;;;22.00;21.00;;;;;9.42;51.84;98870.13;6189038;28;125996;-64
2021/04/16 07:44:28;;;;;;;;;18.25;17.25;;;;;9.44;51.37;98855.38;6197006;28;124904;-66
2021/04/16 07:47:34;;;;;;;;;18.00;17.50;;;;;9.41;51.53;98855.84;6190399;28;126096;-66
2021/04/16 07:50:42;;;;;;;;;21.00;20.00;;;;;9.43;51.94;98872.56;6203951;28;125228;-65
2021/04/16 07:53:46;;;;;;;;;22.00;20.00;;;;;9.44;51.64;98871.53;6201604;28;124879;-65
2021/04/16 07:57:02;;;;;;;;;20.80;17.40;;;;;9.49;51.60;98876.28;6209472;28;126617;-66
2021/04/16 08:00:09;;;;;;;;;19.00;18.00;;;;;9.50;51.63;98872.53;6197151;28;125711;-66
2021/04/16 08:03:18;;;;;;;;;18.00;16.60;;;;;9.36;51.81;98870.97;6191384;28;125346;-65
2021/04/16 08:06:28;;;;;;;;;19.80;18.40;;;;;9.46;51.25;98852.50;6206585;28;123086;-65
2021/04/16 08:09:33;;;;;;;;;20.40;19.40;;;;;9.54;51.21;98866.50;6191867;28;126208;-64
2021/04/16 08:12:36;;;;;;;;;19.60;17.60;;;;;9.45;51.50;98878.56;6191301;28;124639;-65
2021/04/16 08:15:38;;;;;;;;;23.20;19.00;;;;;9.49;51.45;98877.09;6192037;28;126549;-64
2021/04/16 08:18:43;;;;;;;;;20.00;18.40;;;;;9.46;51.45;98865.94;6193741;28;125247;-65
2021/04/16 08:21:49;;;;;;;;;23.00;23.00;;;;;9.60;51.33;98870.22;6190011;28;126721;-65
2021/04/16 08:24:56;;;;;;;;;21.40;20.60;;;;;9.75;50.91;98873.44;6191816;28;126572;-65
2021/04/16 08:28:03;;;;;;;;;22.00;20.00;;;;;9.61;50.90;98868.34;6191710;28;124722;-64
2021/04/16 08:31:08;;;;;;;;;23.60;21.60;;;;;9.65;51.25;98874.94;6189388;28;123918;-65
2021/04/16 08:34:16;;;;;;;;;23.60;20.60;;;;;9.70;50.90;98878.66;6198892;28;124788;-66
2021/04/16 08:37:26;;;;;;;;;21.60;20.00;;;;;9.87;50.62;98873.59;6190627;28;126218;-65
2021/04/16 08:40:32;;;;;;;;;21.00;20.00;;;;;9.80;51.00;98870.94;6190428;28;124583;-65
2021/04/16 08:43:38;;;;;;;;;24.00;21.60;;;;;9.76;50.42;98860.81;6195837;28;125875;-65
2021/04/16 08:46:43;;;;;;;;;21.00;19.00;;;;;9.78;50.83;98877.56;6190417;28;124548;-64
2021/04/16 08:49:47;;;;;;;;;21.00;19.00;;;;;9.65;51.09;98880.34;6195821;28;124658;-65
2021/04/16 08:52:52;;;;;;;;;22.00;22.00;;;;;9.64;51.46;98876.81;6205807;28;124895;-65
2021/04/16 08:55:54;;;;;;;;;24.00;20.20;;;;;9.53;51.70;98882.88;6204855;28;126501;-65
2021/04/16 08:58:57;;;;;;;;;22.80;21.80;;;;;9.71;51.50;98882.16;6203259;28;127292;-65
2021/04/16 09:02:16;;;;;;;;;20.00;19.00;;;;;9.82;51.19;98881.50;6200410;28;123919;-65
2021/04/16 09:05:24;;;;;;;;;21.50;20.00;;;;;9.85;51.08;98884.56;6201557;28;124799;-65
2021/04/16 09:08:45;;;;;;;;;23.50;21.00;;;;;9.85;51.11;98883.72;6188258;28;126605;-65
2021/04/16 09:11:54;;;;;;;;;24.00;22.25;;;;;9.83;51.05;98886.63;6198939;28;125581;-65
2021/04/16 09:14:57;;;;;;;;;22.00;21.00;;;;;9.86;50.68;98883.53;6186703;28;126406;-64
2021/04/16 09:18:26;;;;;;;;;24.40;20.40;;;;;9.89;51.18;98888.47;6192694;28;125737;-64
2021/04/16 09:21:31;;;;;;;;;23.00;19.80;;;;;9.88;51.11;98875.22;6192885;28;124488;-65
2021/04/16 09:24:45;;;;;;;;;22.00;21.00;;;;;9.88;51.02;98881.44;6194857;28;126315;-65
2021/04/16 09:27:49;;;;;;;;;26.40;21.00;;;;;9.82;51.41;98895.75;6203146;28;126088;-65
2021/04/16 09:30:54;;;;;;;;;23.00;21.00;;;;;9.82;51.30;98886.88;6203634;28;124629;-65
2021/04/16 09:34:16;;;;;;;;;23.25;21.00;;;;;9.96;51.43;98889.25;6208212;28;124693;-65
2021/04/16 09:37:34;;;;;;;;;23.00;22.00;;;;;9.94;51.15;98896.72;6210764;28;125342;-64
2021/04/16 09:40:37;;;;;;;;;21.50;20.50;;;;;9.94;51.08;98879.72;6196808;28;124740;-64
2021/04/16 09:43:41;;;;;;;;;26.00;23.50;;;;;9.87;51.46;98881.66;6210460;28;125149;-64
2021/04/16 09:46:48;;;;;;;;;27.00;25.40;;;;;9.80;51.49;98892.47;6209072;28;126607;-64
2021/04/16 09:50:00;;;;;;;;;23.00;22.25;;;;;9.69;51.91;98890.44;6209941;28;124699;-65
2021/04/16 09:53:16;;;;;;;;;28.60;24.00;;;;;9.90;51.72;98883.91;6208794;28;126261;-65
2021/04/16 09:56:19;;;;;;;;;27.60;24.00;;;;;10.05;51.41;98886.28;6210172;28;126802;-65
2021/04/16 09:59:31;;;;;;;;;26.00;23.25;;;;;10.09;51.27;98884.81;6199660;28;126251;-65
2021/04/16 10:02:37;;;;;;;;;29.00;25.00;;;;;10.12;51.51;98882.50;6208876;28;125049;-64
2021/04/16 10:05:40;;;;;;;;;27.20;25.80;;;;;10.14;51.47;98879.59;6205986;28;124731;-64
2021/04/16 10:08:45;;;;;;;;;22.20;20.00;;;;;10.14;51.84;98888.50;6210095;28;126951;-64
2021/04/16 10:11:50;;;;;;;;;28.00;24.00;;;;;10.16;51.43;98873.00;6203937;28;126253;-64
2021/04/16 10:14:52;;;;;;;;;26.00;24.00;;;;;10.26;51.47;98885.97;6202033;28;126017;-64
2021/04/16 10:17:59;;;;;;;;;28.50;24.00;;;;;10.20;51.21;98879.59;6207722;28;126626;-64
2021/04/16 10:21:07;;;;;;;;;22.60;21.20;;;;;10.03;51.34;98870.34;6203712;28;126079;-64
2021/04/16 12:40:59;;;;;;;;;20.25;18.00;;;;;10.56;52.75;98896.88;6204885;28;96601;-64
2021/04/16 12:44:01;;;;;;;;;18.80;18.20;;;;;10.62;52.57;98885.22;6203173;28;98025;-64
2021/04/16 12:47:06;;;;;;;;;21.80;20.40;;;;;10.78;52.56;98904.34;6197406;28;101149;-65
2021/04/16 12:50:12;;;;;;;;;19.20;18.80;;;;;10.69;52.42;98886.81;6205610;28;99262;-65
2021/04/16 12:53:14;;;;;;;;;20.20;19.00;;;;;10.90;52.38;98904.44;6206745;28;99339;-65
2021/04/16 12:56:20;;;;;;;;;24.00;21.00;;;;;10.85;52.53;98912.38;6205242;28;97071;-65
2021/04/16 12:59:24;;;;;;;;;19.40;18.40;;;;;10.86;52.67;98909.44;6203702;28;96612;-65
2021/04/16 13:02:29;;;;;;;;;24.00;18.00;;;;;11.08;52.03;98906.34;6200326;28;100309;-65
2021/04/16 13:05:32;;;;;;;;;22.00;19.60;;;;;11.11;51.84;98908.56;6203138;28;97065;-64
2021/04/16 13:08:35;;;;;;;;;20.60;19.00;;;;;11.03;51.75;98909.72;6211184;28;101583;-64
2021/04/16 13:11:39;;;;;;;;;19.40;17.00;;;;;11.08;51.21;98898.25;6209665;28;98458;-64
2021/04/16 13:14:41;;;;;;;;;21.00;19.50;;;;;11.10;51.96;98910.44;6202221;28;99125;-64
2021/04/16 13:17:48;;;;;;;;;21.80;20.80;;;;;11.22;51.74;98900.56;6198433;28;100288;-64
2021/04/16 13:20:51;;;;;;;;;22.00;21.00;;;;;11.12;51.59;98889.47;6191374;28;97056;-65
2021/04/16 13:23:55;;;;;;;;;20.00;18.00;;;;;11.29;50.98;98904.00;6205003;28;98782;-64
2021/04/16 13:26:58;;;;;;;;;17.80;16.80;;;;;11.15;51.19;98897.09;6222632;28;98140;-66
2021/04/16 13:30:00;;;;;;;;;18.80;17.40;;;;;11.12;51.15;98900.25;6210209;28;100196;-65
2021/04/16 13:33:07;;;;;;;;;18.20;17.20;;;;;11.06;51.38;98903.03;6211008;28;100556;-65
2021/04/16 13:36:14;;;;;;;;;17.50;16.00;;;;;10.99;51.79;98904.97;6210876;28;98042;-65
2021/04/16 13:39:20;;;;;;;;;20.00;18.40;;;;;10.98;52.23;98911.41;6207367;28;100160;-64
2021/04/16 13:42:23;;;;;;;;;23.40;21.00;;;;;11.10;52.39;98912.31;6194651;28;97622;-64
2021/04/16 13:45:25;;;;;;;;;22.00;20.00;;;;;11.12;52.09;98915.63;6193530;28;98910;-64
2021/04/16 13:48:28;;;;;;;;;24.60;22.00;;;;;11.25;51.75;98910.06;6195212;28;98447;-64
2021/04/16 13:51:31;;;;;;;;;18.00;18.00;;;;;11.34;51.74;98918.72;6190870;28;99130;-65
2021/04/16 13:54:35;;;;;;;;;20.00;18.00;;;;;11.08;51.24;98912.56;6188980;28;97512;-65
2021/04/16 13:57:38;;;;;;;;;17.25;16.00;;;;;11.10;51.44;98913.13;6193423;28;97270;-64
2021/04/16 14:00:40;;;;;;;;;19.40;18.00;;;;;10.97;51.75;98916.00;6201765;28;99761;-64
2021/04/16 14:03:45;;;;;;;;;21.25;18.25;;;;;10.91;51.85;98911.47;6208137;28;99069;-64
2021/04/16 14:06:49;;;;;;;;;21.75;20.00;;;;;10.88;52.05;98922.72;6209295;28;96615;-64
2021/04/16 14:09:51;;;;;;;;;20.20;18.20;;;;;10.91;51.84;98916.88;6208163;28;125755;-64
2021/04/16 14:12:55;;;;;;;;;17.60;16.20;;;;;10.95;51.82;98928.03;6206114;28;126402;-64
2021/04/16 14:16:02;;;;;;;;;21.40;21.00;;;;;10.91;52.12;98916.03;6204106;28;125841;-64
2021/04/16 14:19:07;;;;;;;;;20.50;19.50;;;;;10.78;52.13;98909.75;6189519;28;125694;-64
2021/04/16 14:22:12;;;;;;;;;20.00;19.00;;;;;10.82;52.16;98916.34;6195856;28;123951;-64
2021/04/16 14:25:16;;;;;;;;;19.60;19.00;;;;;10.98;52.24;98922.22;6200908;28;126770;-64
2021/04/16 14:28:21;;;;;;;;;18.75;17.75;;;;;11.04;52.06;98915.94;6197181;28;124740;-64
2021/04/16 14:31:23;;;;;;;;;23.00;20.25;;;;;11.02;51.94;98924.22;6208569;28;126079;-65
2021/04/16 14:34:30;;;;;;;;;20.40;19.60;;;;;11.09;51.50;98916.88;6207110;28;127119;-65
2021/04/16 14:37:32;;;;;;;;;21.60;20.00;;;;;11.16;51.71;98919.53;6191232;28;124616;-65
2021/04/16 14:40:35;;;;;;;;;22.40;21.40;;;;;11.11;51.37;98922.88;6202587;28;126515;-65
2021/04/16 14:43:39;;;;;;;;;23.00;21.00;;;;;11.05;51.63;98929.19;6199888;28;126001;-64
2021/04/16 14:46:42;;;;;;;;;22.60;20.60;;;;;11.05;51.82;98928.34;6208493;28;124863;-64
2021/04/16 14:49:44;;;;;;;;;23.00;21.00;;;;;10.86;52.19;98919.41;6208038;28;125023;-64
2021/04/16 14:52:47;;;;;;;;;26.00;24.00;;;;;10.99;52.21;98935.50;6201543;28;125426;-64
2021/04/16 14:55:50;;;;;;;;;20.40;20.00;;;;;11.02;51.95;98932.34;6202719;28;126582;-64
2021/04/16 14:59:11;;;;;;;;;21.40;20.40;;;;;11.02;51.88;98939.59;6193763;28;126389;-64
2021/04/16 15:02:14;;;;;;;;;21.60;19.00;;;;;11.02;51.85;98932.34;6204469;28;126351;-66
2021/04/16 15:05:18;;;;;;;;;21.20;20.00;;;;;11.09;51.56;98938.47;6206487;28;124370;-64
2021/04/16 15:08:25;;;;;;;;;23.00;21.00;;;;;11.05;51.36;98944.53;6201175;28;126207;-64
2021/04/16 15:11:34;;;;;;;;;20.00;19.00;;;;;11.03;51.62;98935.84;6212013;28;126133;-64
2021/04/16 15:14:39;;;;;;;;;21.00;19.00;;;;;11.06;51.48;98941.63;6208674;28;125607;-65
2021/04/16 15:17:41;;;;;;;;;21.00;19.00;;;;;10.97;51.53;98917.84;6199113;28;126199;-65
2021/04/16 15:20:46;;;;;;;;;22.75;19.00;;;;;11.12;51.36;98940.75;6198536;28;127516;-65
2021/04/16 15:23:49;;;;;;;;;20.40;19.40;;;;;11.08;51.58;98944.94;6194226;28;125675;-65
2021/04/16 15:26:51;;;;;;;;;19.00;18.00;;;;;11.15;51.53;98936.75;6202427;28;125183;-65
2021/04/16 15:29:56;;;;;;;;;19.00;18.00;;;;;11.11;51.40;98940.94;6198950;28;125099;-65
2021/04/16 15:33:01;;;;;;;;;21.60;19.00;;;;;11.16;51.26;98939.22;6195171;28;123783;-64
2021/04/16 15:46:39;;;;;;;;;22.75;22.00;;;;;11.09;51.81;98943.06;6204210;28;125907;-64
2021/04/16 15:49:42;;;;;;;;;20.60;19.40;;;;;10.95;52.07;98938.81;6213184;28;123871;-65
2021/04/16 15:52:44;;;;;;;;;23.20;21.00;;;;;11.07;52.24;98945.97;6211762;28;124680;-65
2021/04/16 15:55:47;;;;;;;;;26.33;22.33;;;;;11.13;52.08;98938.88;6209191;28;126276;-64
2021/04/16 15:58:53;;;;;;;;;25.60;23.00;;;;;11.06;51.78;98947.00;6212492;28;125996;-64
2021/04/16 16:01:58;;;;;;;;;24.80;22.80;;;;;11.03;52.22;98941.25;6198640;28;124715;-64
2021/04/16 16:05:00;;;;;;;;;24.20;22.20;;;;;11.10;52.00;98952.78;6197361;28;124929;-64
2021/04/16 16:08:04;;;;;;;;;24.40;22.80;;;;;11.05;52.12;98953.47;6201489;28;126271;-64
2021/04/16 16:11:11;;;;;;;;;22.80;21.80;;;;;10.92;52.14;98928.50;6206628;28;126062;-64
2021/04/16 16:14:18;;;;;;;;;23.50;22.50;;;;;11.08;52.15;98950.34;6206677;28;124733;-64
2021/04/16 16:17:25;;;;;;;;;22.00;21.00;;;;;10.83;52.28;98952.22;6202083;28;125911;-65
2021/04/16 16:20:30;;;;;;;;;24.20;22.80;;;;;11.01;52.12;98949.56;6185857;28;124602;-65
2021/04/16 16:23:32;;;;;;;;;25.60;25.00;;;;;11.00;52.06;98947.06;6207844;28;124926;-65
2021/04/16 16:26:39;;;;;;;;;24.80;22.20;;;;;11.10;51.92;98950.91;6210849;28;124669;-65
2021/04/16 16:29:45;;;;;;;;;25.00;22.80;;;;;11.07;52.11;98953.25;6212057;28;125705;-64
2021/04/16 16:32:48;;;;;;;;;28.00;25.50;;;;;11.05;52.20;98952.63;6203416;28;124633;-64
2021/04/16 16:35:53;;;;;;;;;26.80;25.40;;;;;11.17;51.90;98954.38;6198022;28;124914;-64
2021/04/16 16:38:55;;;;;;;;;27.00;25.00;;;;;11.12;51.84;98958.78;6210774;28;125872;-65
2021/04/16 16:41:57;;;;;;;;;23.00;21.75;;;;;11.05;51.55;98925.66;6204620;28;126096;-65
2021/04/16 16:45:00;;;;;;;;;27.00;25.00;;;;;11.24;51.26;98960.50;6201386;28;126375;-65
2021/04/16 16:48:04;;;;;;;;;22.60;22.00;;;;;11.26;51.63;98957.59;6203523;28;126842;-65
2021/04/16 16:51:09;;;;;;;;;27.20;22.00;;;;;11.16;51.52;98963.53;6198512;28;126809;-65
2021/04/16 16:54:11;;;;;;;;;30.80;28.20;;;;;11.14;51.55;98959.41;6196805;28;99173;-65